Video statistics

Date Title Duration Views Likes Dislikes Comments Transcribed Length
2010-01-04 It Hurts In My Toof: The 2010 Rules 03:25 305,445 6,252 72 1,616 4,228
2010-01-06 15 Hours in Target! 03:37 1,201,623 19,405 292 2,663 2,336
2010-01-08 GUS HAS NO FUZZ! 02:39 242,706 8,248 76 682 3,021
2010-01-11 Ecosystem Services 101 with Hank 03:53 149,267 4,661 64 697 4,957
2010-01-13 Froghoppin' with Gatsby 03:59 491,327 13,195 120 1,535 5,631
2010-01-15 Introduction to Chemistry with Hank 04:01 203,300 5,753 137 1,988 5,392
2010-01-18 Fatherhood 02:55 502,792 14,142 114 2,591 3,588
2010-01-20 OMG MY BROTHER HAD A BABY 03:22 795,378 20,687 536 3,561 3,088
2010-01-22 ThisIsNotJohn 03:16 296,004 9,442 227 1,813 3,381
2010-01-25 Name My Dog! 04:01 346,793 5,558 107 3,415 4,370
2010-01-27 Boobs and the iPad 03:57 256,367 5,169 346 980 5,167
2010-01-28 RIP JD Salinger 01:17 251,396 5,614 70 803 1,616
2010-01-29 An Extremely Brief History of Superbowl Commercials 02:49 123,020 1,452 19 190 3,353
2010-01-29 The iPad and Dolphin Murder 03:57 381,733 5,567 265 1,488 4,755
2010-02-01 Writing as a profession 03:38 288,296 5,578 137 1,135 3,780
2010-02-03 Win The Awesomest Prizes EVAR! 03:45 109,570 3,392 48 525 4,491
2010-02-05 DARE TO SUCK 03:56 278,289 6,143 145 952 4,411
2010-02-06 Truth or Fail: SUPERBOWL 01:30 146,592 1,555 117 219 1,131
2010-02-08 Hypocrisy: All They Want is Money 03:59 1,516,230 33,039 1,062 3,886 4,401
2010-02-10 HOW TO GET AN AGENT 03:51 161,343 4,466 81 784 4,767
2010-02-12 Google Search Stories: Harry Potter 02:45 454,384 8,784 269 913 1,085
2010-02-15 Hello Baby!! 03:44 1,056,453 18,900 173 2,582 4,473
2010-02-17 WRONG WRONG WRONG 03:57 567,510 18,058 152 3,536 4,665
2010-02-19 Henry's Pee and My Gut 03:15 458,252 18,492 152 1,384 3,879
2010-02-22 TWO HUNDRED THOUSAND!! 04:01 154,026 7,407 79 5,488 4,801
2010-02-24 JOHN GREEN IS FAT. 02:25 646,810 15,196 152 1,924 2,844
2010-02-26 Ningmaster Tom 03:55 144,742 6,001 60 1,034 4,529
2010-03-01 The Marriage Ref SUCKS 03:08 223,664 9,873 111 1,576 4,051
2010-03-03 VidCon Schedule Spectacular! 03:57 104,320 3,378 55 511 4,979
2010-03-05 Red Green, the Nintendo, and HANK 03:06 352,460 10,410 100 1,730 3,753
2010-03-08 GIGANTIC CHICKEN EGG!! 03:36 358,125 11,433 379 1,303 3,864
2010-03-10 New Tour! New Book! (Remember Books?) Your Q's A'ed! 03:15 176,495 6,596 55 4,246 4,125
2010-03-12 Peeing, Pooping, Prescription Drugs, and Ramen Noodle Fires 03:31 393,672 7,553 111 943 4,445
2010-03-15 Cute OVERLOAD: The Ultimate Concern Edition 03:14 961,838 29,745 162 3,017 3,931
2010-03-17 Side-Boob is Not my Ultimate Concern 04:00 353,630 6,684 100 839 4,590
2010-03-19 Foreign John Green Books and the Ultimate Concern 03:38 347,911 10,718 99 1,422 4,616
2010-03-22 Top 10 Weirdest Diseases 04:00 1,501,770 21,123 548 5,601 4,632
2010-03-24 Top 10 Animal POWER MOVES 03:45 10,738,304 39,774 12,401 8,851 4,535
2010-03-26 Top 10 Freaking Amazing Explosions 04:00 4,629,326 16,323 8,142 6,322 4,313
2010-03-29 Quotations (And Holden Hats) 02:48 428,772 8,292 91 7,036 4,117
2010-03-31 Having a bad day on Chat Roulette 03:59 555,908 15,033 212 1,738 3,106
2010-04-02 Will Grayson, Will Grayson 03:34 308,791 9,553 75 2,386 4,573
2010-04-05 Google in your Brain 03:59 342,826 7,109 225 2,001 4,710
2010-04-07 Shmancy Hotel Room Is Shmancy 03:01 323,952 5,861 37 1,930 4,251
2010-04-09 Why is the Sky Blue and Other Questions Answered 03:58 390,059 9,936 98 1,971 5,489
2010-04-12 On the Separation of Conjoined Twins 03:16 295,000 5,498 61 1,470 4,772
2010-04-14 Fun is Important. Being Serious Isn't 02:26 267,506 7,170 72 1,282 3,164
2010-04-16 The Patron Saint of Youtube 03:11 274,785 5,335 74 1,069 4,046
2010-04-19 I Shall BLOW YOUR MIND 03:22 820,449 14,292 134 2,765 3,740
2010-04-21 The Insurrection of Subjugated Knowledges 03:03 208,213 3,922 34 1,208 4,238
2010-04-23 VidCon: User Generated Conference 03:32 120,353 3,055 48 646 4,211
2010-04-26 Nerdfighters, They Named a PLANE After Us 02:45 340,453 6,240 36 946 3,496
2010-04-28 Who's in Your Hug Bucket? 03:49 204,897 4,411 35 2,330 4,157
2010-04-30 The Greek Debt Crisis Explained in Four Minutes 03:49 1,192,231 11,524 900 3,159 5,108
2010-05-03 Net Neutrality in the Shower 04:00 241,038 8,532 104 890 4,417
2010-05-05 HANKO DE MAYO!!!!11!! 11:54 167,688 6,331 45 1,428 9,448
2010-05-07 How to Live Forever 04:00 273,605 5,555 54 1,539 5,487
2010-05-10 Advice on Dumb Boyfriends, Going to College, and More 03:27 747,948 14,625 85 2,433 4,720
2010-05-12 Hank Raps about w00tstock...for real 03:15 179,273 7,559 163 989 3,696
2010-05-14 Advice on First Kisses, Stalkers, College Majors, and More 03:59 1,236,630 22,376 225 2,062 5,602
2010-05-17 My YouTube Story is Short 02:14 167,525 3,798 48 1,373 2,958
2010-05-19 Adorable Baby Is Adorable 02:51 1,433,216 51,604 362 6,676 2,289
2010-05-21 How to Make a Website in Four Minutes 03:45 419,432 6,654 242 1,322 5,364
2010-05-24 How To Make a Baby 02:22 2,116,336 19,474 971 2,293 2,958
2010-05-26 How to Be Green Without Being a Prick 04:00 456,215 12,517 210 1,724 4,798
2010-05-28 How To Do Everything 03:16 506,956 10,118 102 979 4,243
2010-05-31 Farmville!!!!! A Song 03:18 240,429 5,597 279 607 3,752
2010-06-02 The Case of the Poopy Nintendo 03:31 400,000 9,630 187 1,447 4,403
2010-06-04 YouTube vs. Viacom The Battle Explained 03:59 312,215 8,681 210 1,109 5,164
2010-06-07 Viacom PWNED on Piracy 03:27 444,975 10,383 97 1,629 3,963
2010-06-09 Should We Sue Viacom? 03:48 285,124 7,001 61 1,303 4,707
2010-06-11 Mmmm....PARTS 02:52 185,914 3,692 35 960 3,496
2010-06-14 Be The Change - vlogbrothers 03:29 176,964 6,109 175 1,192 4,103
2010-06-16 In Defense of Contemporary Art 02:36 191,952 4,536 59 910 3,210
2010-06-18 You just lost THE GAME! 03:43 410,277 11,325 543 4,965 4,538
2010-06-21 You're Gonna Die 03:32 437,492 8,029 102 1,303 4,231
2010-06-23 GOOOOOOOL!!!! 03:41 211,072 4,876 246 1,666 3,861
2010-06-25 Book Nerd PARADISE 02:04 332,080 8,595 39 1,609 2,308
2010-06-28 Stabbed in the Brain: Phineas Gage 03:59 657,580 10,010 123 1,657 5,017
2010-06-30 Poopy Nintendo Mystery SOLVED WITH SCIENCE 03:39 402,432 8,426 95 1,679 4,608
2010-07-02 VidCon by the Numbers 03:43 150,466 3,153 68 771 3,701
2010-07-05 With Esther 03:32 350,437 8,930 43 1,110 4,178
2010-07-08 Los Angeles Earthquake at VidCon 04:00 203,674 3,423 54 749 4,468
2010-07-14 Top 10 VIDCON MOMENTS 03:50 294,035 8,493 80 1,948 4,092
2010-07-16 VidCon, Oil Spill, Punishments, Shane Dawson, and my Balls 03:53 210,573 6,135 72 1,184 3,994
2010-07-20 I Like Balls 02:35 259,502 6,747 79 1,096 3,050
2010-07-21 I Hung out with Snookie...Accidentally 04:00 754,170 14,799 250 2,342 4,579
2010-07-23 Grammar School with Snooki 03:36 1,120,058 19,225 390 3,399 4,556
2010-07-26 Hank's Life in a Day 03:46 500,850 8,925 66 1,204 4,604
2010-07-28 Umbrellas Amuse Me: Observations from One Day in Munich 03:45 374,686 12,789 64 1,021 4,608
2010-07-30 Demon Four Year Old 03:24 993,869 17,602 1,579 1,895 3,902
2010-08-02 I Love Hank: Esther Day 2010 03:33 316,151 8,521 50 1,935 4,407
2010-08-04 Family, Love and BISON ATTACKS! 03:48 298,914 6,297 58 775 4,802
2010-08-06 Looking for Alaska at My High School 03:41 616,417 19,658 84 2,455 4,938
2010-08-10 JOIN THE PEN15 CLUB!! 03:53 520,061 8,528 231 1,605 4,711
2010-08-11 College Advice From an Expert 04:00 923,048 16,999 96 2,414 5,396
2010-08-13 The Marvelous Mystery of The Dan 03:57 193,294 5,034 107 1,324 4,214
2010-08-16 Lust and Folly in London and Edinburgh 03:39 349,708 8,133 34 1,771 5,336
2010-08-18 Demon Four Year Old Interviewed 04:00 618,091 6,229 1,374 1,196 3,731
2010-08-20 The Fox Hat IS REAL, but Are Zombies People? 03:47 438,298 13,950 91 2,767 4,578
2010-08-22 Is Obama a Muslim? Examine the Evidence! 03:00 891,732 18,771 966 6,339 3,919
2010-08-23 Make-up Tutorial: Katniss Everdeen Look 03:46 719,682 20,995 169 4,687 4,538
2010-08-24 FRENCH THE LLAMA! John is 33! 05:56 253,917 8,008 66 2,875 4,136
2010-08-27 Rest In Awesome, Esther 03:20 588,560 23,260 210 3,152 3,992
2010-08-30 Thoughts from Places: The Centennial Valley 03:32 227,307 6,348 46 758 4,104
2010-09-01 Fitness for Nerds 09:24 801,720 32,081 228 6,429 7,939
2010-09-03 ANOTHER Oil Rig Explosion?! REALLY?! 04:00 302,306 5,706 215 2,457 5,096
2010-09-06 I HATE PENNIES!!!! (Also Nickels.) 03:57 1,562,056 29,678 516 6,352 4,749
2010-09-08 Where are the Space Aliens?! 03:56 330,230 6,859 144 3,898 4,766
2010-09-10 Giant Baby Attack 03:27 891,644 20,823 105 2,894 3,865
2010-09-14 Thoughts from Places: YouTube HQ 02:42 242,482 5,163 60 735 3,107
2010-09-15 Positive Pranking: The TP Edition 03:02 284,462 7,893 69 1,397 3,757
2010-09-17 Positive Prank Calls!! 03:33 686,561 17,763 280 1,854 4,106
2010-09-20 Life Is Like Pizza 03:48 603,749 18,654 144 2,996 4,922
2010-09-22 Non-VIrgin...a Lexical Gap? 03:40 749,379 11,974 82 2,313 4,534
2010-09-24 Dumping My 15-Year-Old Girlfriend 02:50 1,169,117 18,942 157 1,967 3,811
2010-09-27 Stop Embarrassing Yourself 03:54 1,237,820 48,714 419 14,948 4,196
2010-09-29 MY FRIEND CHESTER 03:19 292,787 7,232 30 5,123 4,473
2010-10-01 Supernote and Charlie's Birthday 03:25 264,966 4,750 63 1,176 3,790
2010-10-04 The Terrible Burden of Destiny: Chicago and Waupaca 02:40 293,109 10,596 44 1,276 3,326
2010-10-06 The Fermi Paradox: A Song 03:15 450,298 11,250 185 1,930 3,156
2010-10-08 GEEKING OUT Over Dying Declarations 03:06 438,830 17,528 54 3,186 4,700
2010-10-11 Like a Snake Swallowing an Egg: Thoughts from Florida 02:50 253,425 4,716 56 1,028 3,695
2010-10-13 On Hope and Chile 02:46 184,346 7,749 46 894 3,717
2010-10-15 TOP 7 FAILS OF HISTORY 03:12 1,527,529 26,453 475 4,593 3,433
2010-10-19 Giraffe Sex: A Terrifying Introduction to Nature at Work (and Play) 03:55 5,198,135 23,035 2,733 2,318 4,626
2010-10-20 Strange Charm: A Song about Quarks 02:33 1,701,717 32,564 235 7,621 3,106
2010-10-22 Making Adorable Music 02:39 529,741 19,388 95 2,219 2,725
2010-10-25 Rocky Horror + Glee = ? 04:00 388,293 6,857 151 3,610 4,239
2010-10-27 You Are Awesome 03:10 341,945 7,457 32 2,044 4,017
2010-10-29 Hank Has Questions 04:00 279,967 8,818 48 2,728 5,399
2010-11-01 Consider the Lemming 03:53 408,874 10,633 42 3,540 5,495
2010-11-03 Phineas Gage: A Song 04:01 308,734 5,943 89 1,037 3,934
2010-11-05 God and Grain: The French Revolution, Part I 05:35 630,483 13,369 109 2,440 7,072
2010-11-08 Probability 101 08:34 681,238 12,752 232 4,204 10,429
2010-11-10 Headless Monarchy: The French Revolution, Part II 06:05 444,437 8,694 50 1,163 6,915
2010-11-11 REIGN OF TERROR: The French Revolution, Part III 05:13 494,069 7,259 77 1,319 5,431
2010-11-12 Blood!!! 05:38 555,132 9,188 162 5,989 7,223
2010-11-15 Hey! You! Fix the Budget! 03:51 279,863 6,550 39 2,032 5,109
2010-11-17 HARRY POTTER SONG! 04:01 533,135 19,717 312 2,562 4,141
2010-11-19 I'm Not Going Down: Thoughts from Amsterdam 02:04 330,110 10,064 29 1,586 2,717
2010-11-22 Thoughts from Places: On a Horse 03:45 234,686 5,546 34 1,205 4,812
2010-11-24 Babies and Catacombs: VIENNA (Thoughts from Places) 03:16 286,363 7,207 29 1,200 3,928
2010-11-26 p4a, Space Pasta, and Giant Squids of Anger 03:50 309,624 11,118 38 1,387 5,123
2010-11-28 John and Hank: The Out-Takes 03:30 395,140 9,789 26 1,374 4,740
2010-11-29 Giant Tortoise Coitus 03:42 327,398 5,819 176 1,444 4,752
2010-12-01 Makin' Babies: A Song 03:20 320,397 5,709 165 1,739 3,895
2010-12-03 Giant Squids OF LOVE 03:21 336,005 6,818 60 1,370 4,096
2010-12-06 Tongue Twisters 04:35 324,294 10,268 66 2,703 5,874
2010-12-08 My Zombie Apocalypse Novella 03:46 253,027 9,304 77 1,945 4,508
2010-12-10 Project for Awesome and Thoughts from DC 03:43 184,414 4,028 48 623 4,495
2010-12-13 8 Things I Love 03:46 796,054 19,274 74 2,757 4,597
2010-12-15 Adult Female: A Song 03:31 278,535 7,667 175 1,077 2,406
2010-12-17 PROJECT FOR AWESOME 2010: Save the Children and Partners in Health 03:48 171,672 11,070 47 8,535 4,934
2010-12-20 Thoughts on the Project for Awesome 03:41 136,787 5,325 51 441 4,675
2010-12-22 I Was on Jeopardy!!!! 02:53 757,336 22,199 93 1,749 2,945
2010-12-27 To: You - - From: The Vlogbrothers 03:59 219,322 6,152 19 3,368 4,654
2010-12-29 Baby on the Road: Thoughts from Places 02:58 778,696 23,482 92 2,711 3,570
2010-12-31 Is Lady Gaga a Man? 03:18 670,964 22,344 174 3,771 4,448